Adams Corners, New York
Current Conditions -  °F | °C
As of 2:45 AM on Wednesday 26 Nov 2014 (Local Time) from KSWF Reporting Station
Clear Clear  
Wind Chill: 41°   Ceiling: Unl
Heat Index: 41°   Visibility: 10mi
Dew Point: 30°   Wind: 0mph
Humidity: 65%   Direction: NA
Pressure: 30.18"   Gusts: NA
Location:  41.3969°N, 73.8382°W
Report Text: KSWF 260745Z 00000KT 10SM SKC 05/M01 A3018
Loading
Personal Weather Stations






























Interactive Weather Map New forecast layout! Learn more

10-Day Weather Forecast

Advertisements
Track Severe Weather on mobile